Time;durP1;ratioP1;P1;durP2;ratioP2;P2;SDS_P1;SDS_P2;PMS_P1;PMS_P2;Temp;Humidity;BMP_temperature;BMP_pressure;BME280_temperature;BME280_humidity;BME280_pressure;Samples;Min_cycle;Max_cycle;Signal;HPM_P1;HPM_P2
2021/03/30 00:02:03;;;;;;;1.3;0.8;;;;;;;5.69;67.96387;953.305;;;;
2021/03/30 00:04:28;;;;;;;1.3;1.1;;;;;;;5.33;69.32813;953.2444;;;;
2021/03/30 00:06:54;;;;;;;3.9;1.1;;;;;;;5.11;70.35156;953.2971;;;;
2021/03/30 00:09:19;;;;;;;1.7;1.1;;;;;;;5.05;70.54492;953.2868;;;;
2021/03/30 00:11:44;;;;;;;2.1;1.4;;;;;;;5.14;69.99609;953.2917;;;;
2021/03/30 00:14:13;;;;;;;2.8;1.5;;;;;;;5.14;70.0625;953.2795;;;;
2021/03/30 00:16:48;;;;;;;2.4;1.2;;;;;;;5.17;69.95605;953.2859;;;;
2021/03/30 00:19:17;;;;;;;1.9;1.4;;;;;;;5.17;69.75391;953.2444;;;;
2021/03/30 00:21:42;;;;;;;3.5;1.4;;;;;;;5.33;68.85449;953.2278;;;;
2021/03/30 00:24:08;;;;;;;3.2;1.5;;;;;;;5.44;68.28516;953.212;;;;
2021/03/30 00:26:35;;;;;;;4.3;1.4;;;;;;;5.59;67.61035;953.1872;;;;
2021/03/30 00:28:58;;;;;;;4.9;1.5;;;;;;;5.49;68.1123;953.1133;;;;
2021/03/30 00:31:23;;;;;;;1.7;1.3;;;;;;;5.41;68.34863;953.0909;;;;
2021/03/30 00:33:48;;;;;;;6.1;1.8;;;;;;;5.27;68.88965;953.1685;;;;
2021/03/30 00:36:14;;;;;;;2;1.1;;;;;;;5.36;68.59961;953.1442;;;;
2021/03/30 00:38:39;;;;;;;3.1;1.2;;;;;;;5.23;68.98535;953.1128;;;;
2021/03/30 00:41:06;;;;;;;1;0.7;;;;;;;5.17;69.24512;953.1122;;;;
2021/03/30 00:43:31;;;;;;;0.9;0.7;;;;;;;5.16;69.20996;953.0909;;;;
2021/03/30 00:45:57;;;;;;;1.4;0.6;;;;;;;5.03;69.20117;953.0449;;;;
2021/03/30 00:48:22;;;;;;;7.8;1;;;;;;;4.95;69.43555;953.0338;;;;
2021/03/30 00:50:48;;;;;;;0.6;0.6;;;;;;;4.91;69.8457;952.993;;;;
2021/03/30 00:53:13;;;;;;;1.4;1;;;;;;;4.98;69.59766;952.9874;;;;
2021/03/30 00:55:38;;;;;;;3.6;1.1;;;;;;;5.06;69.125;953.002;;;;
2021/03/30 00:58:03;;;;;;;1.3;1.1;;;;;;;5.1;69.09961;952.9785;;;;
2021/03/30 01:00:29;;;;;;;0.9;0.6;;;;;;;5.05;68.77539;952.9085;;;;
2021/03/30 01:02:54;;;;;;;6;1.1;;;;;;;5.02;69.19824;952.9881;;;;
2021/03/30 01:05:19;;;;;;;1.2;1.1;;;;;;;4.99;69.17285;952.9801;;;;
2021/03/30 01:07:45;;;;;;;1.4;1.3;;;;;;;4.96;69.44824;952.9879;;;;
2021/03/30 01:10:10;;;;;;;1.7;1;;;;;;;5.04;69.04492;953.0283;;;;
2021/03/30 01:12:37;;;;;;;1.1;1;;;;;;;4.95;69.83008;952.9959;;;;
2021/03/30 01:15:02;;;;;;;1.5;1;;;;;;;4.74;69.65918;952.9439;;;;
2021/03/30 01:17:32;;;;;;;1.7;1.2;;;;;;;4.85;69.97168;952.959;;;;
2021/03/30 01:19:57;;;;;;;3.4;1.4;;;;;;;4.78;70.33008;952.9105;;;;
2021/03/30 01:22:25;;;;;;;1.7;1.3;;;;;;;4.87;70.12305;952.9185;;;;
2021/03/30 01:24:50;;;;;;;1.4;1.1;;;;;;;4.81;70.10059;952.9152;;;;
2021/03/30 01:27:15;;;;;;;1.5;1.2;;;;;;;4.7;70.68945;952.9448;;;;
2021/03/30 01:29:41;;;;;;;2.2;1.2;;;;;;;4.59;70.94238;952.9118;;;;
2021/03/30 01:32:06;;;;;;;5.4;1.7;;;;;;;4.58;71.18652;952.9481;;;;
2021/03/30 01:34:34;;;;;;;9.1;1.6;;;;;;;4.57;71.23242;952.8873;;;;
2021/03/30 01:36:59;;;;;;;2.6;1.3;;;;;;;4.52;71.52734;952.899;;;;
2021/03/30 01:39:28;;;;;;;2.2;1.4;;;;;;;4.43;71.93945;952.8416;;;;
2021/03/30 01:41:59;;;;;;;1.2;0.9;;;;;;;4.53;71.30176;952.8649;;;;
2021/03/30 01:44:24;;;;;;;0.8;0.7;;;;;;;4.58;70.99512;952.8402;;;;
2021/03/30 01:46:55;;;;;;;1.3;0.9;;;;;;;4.72;70.50293;952.9067;;;;
2021/03/30 01:49:25;;;;;;;0.9;0.8;;;;;;;4.79;70.21875;952.8574;;;;
2021/03/30 01:51:50;;;;;;;2.8;0.8;;;;;;;4.76;70.24805;952.8929;;;;
2021/03/30 01:54:16;;;;;;;1.2;0.9;;;;;;;4.91;69.69922;952.7869;;;;
2021/03/30 01:56:41;;;;;;;0.9;0.8;;;;;;;4.7;70.43066;952.8116;;;;
2021/03/30 01:59:08;;;;;;;1.2;1.1;;;;;;;4.36;71.97363;952.8192;;;;
2021/03/30 02:01:33;;;;;;;1.8;1.3;;;;;;;4.19;72.51758;952.8011;;;;
2021/03/30 02:03:58;;;;;;;0.9;0.7;;;;;;;4.06;72.6084;952.7623;;;;
2021/03/30 02:06:25;;;;;;;1.1;0.9;;;;;;;4.23;71.41211;952.7765;;;;
2021/03/30 02:08:50;;;;;;;1.7;0.7;;;;;;;4.5;70.62305;952.6641;;;;
2021/03/30 02:11:26;;;;;;;1.2;0.7;;;;;;;4.48;70.59766;952.7039;;;;
2021/03/30 02:13:53;;;;;;;2.5;0.7;;;;;;;4.4;70.49316;952.7156;;;;
2021/03/30 02:16:16;;;;;;;0.5;0.5;;;;;;;4.38;70.84961;952.6939;;;;
2021/03/30 02:18:43;;;;;;;1.1;0.6;;;;;;;4.37;71.05078;952.694;;;;
2021/03/30 02:21:13;;;;;;;3.6;1.7;;;;;;;4.31;71.09863;952.6688;;;;
2021/03/30 02:23:39;;;;;;;4.5;1.8;;;;;;;4.27;71.63086;952.6145;;;;
2021/03/30 02:26:10;;;;;;;1;0.8;;;;;;;4.32;71.06641;952.6479;;;;
2021/03/30 02:28:43;;;;;;;1.8;1;;;;;;;4.41;70.65332;952.6099;;;;
2021/03/30 02:31:03;;;;;;;1.8;1.1;;;;;;;4.28;71.4873;952.6348;;;;
2021/03/30 02:33:32;;;;;;;1.2;1;;;;;;;4.16;72.06445;952.5892;;;;
2021/03/30 02:35:57;;;;;;;2.7;1.6;;;;;;;4.13;72.31641;952.6339;;;;
2021/03/30 02:38:27;;;;;;;5;0.9;;;;;;;4.17;72.3457;952.6564;;;;
2021/03/30 02:40:52;;;;;;;3;1.6;;;;;;;4.18;72.14453;952.4852;;;;
2021/03/30 02:43:17;;;;;;;1;0.9;;;;;;;4.23;71.9043;952.5245;;;;
2021/03/30 02:45:42;;;;;;;1;0.8;;;;;;;4.09;72.48926;952.5723;;;;
2021/03/30 02:48:09;;;;;;;1.4;0.8;;;;;;;4.07;72.72168;952.6241;;;;
2021/03/30 02:50:35;;;;;;;4.5;1.3;;;;;;;4.22;72.00586;952.5747;;;;
2021/03/30 02:53:00;;;;;;;2.5;0.9;;;;;;;4.06;72.61914;952.553;;;;
2021/03/30 02:55:27;;;;;;;7.7;1.8;;;;;;;3.91;73.33691;952.5934;;;;
2021/03/30 02:57:52;;;;;;;1;0.7;;;;;;;3.74;73.4873;952.5425;;;;
2021/03/30 03:00:18;;;;;;;1;0.9;;;;;;;3.74;73.6543;952.5527;;;;
2021/03/30 03:02:43;;;;;;;10.4;1.4;;;;;;;3.89;73.15234;952.6404;;;;
2021/03/30 03:05:11;;;;;;;1.9;1.2;;;;;;;3.89;72.86035;952.5822;;;;
2021/03/30 03:07:39;;;;;;;2.1;0.8;;;;;;;3.97;72.66016;952.6033;;;;
2021/03/30 03:10:04;;;;;;;1.4;1;;;;;;;4.01;72.49902;952.546;;;;
2021/03/30 03:12:29;;;;;;;3.1;1.1;;;;;;;3.94;72.73438;952.5167;;;;
2021/03/30 03:15:00;;;;;;;2.7;0.9;;;;;;;3.85;73.07813;952.5616;;;;
2021/03/30 03:17:35;;;;;;;1.3;1;;;;;;;3.87;73.28418;952.5643;;;;
2021/03/30 03:20:02;;;;;;;2.1;1.3;;;;;;;3.72;73.88672;952.5845;;;;
2021/03/30 03:22:32;;;;;;;1.3;1;;;;;;;3.56;74.50977;952.4922;;;;
2021/03/30 03:25:01;;;;;;;7.2;1.6;;;;;;;3.57;74.58105;952.4789;;;;
2021/03/30 03:27:27;;;;;;;2.2;0.9;;;;;;;3.53;74.67383;952.4406;;;;
2021/03/30 03:29:54;;;;;;;1.3;1;;;;;;;3.51;74.96484;952.5156;;;;
2021/03/30 03:32:19;;;;;;;5.7;1.1;;;;;;;3.53;74.96582;952.5269;;;;
2021/03/30 03:34:48;;;;;;;1.7;1.1;;;;;;;3.6;74.74414;952.4703;;;;
2021/03/30 03:37:15;;;;;;;1.1;0.9;;;;;;;3.51;74.9873;952.4747;;;;
2021/03/30 03:39:41;;;;;;;3.5;1.6;;;;;;;3.48;75.04785;952.5363;;;;
2021/03/30 03:42:06;;;;;;;7.7;1.8;;;;;;;3.43;75.18457;952.5206;;;;
2021/03/30 03:44:33;;;;;;;4;1.8;;;;;;;3.4;75.24707;952.5919;;;;
2021/03/30 03:46:59;;;;;;;6.1;1.7;;;;;;;3.39;75.17773;952.5349;;;;
2021/03/30 03:49:25;;;;;;;1.7;1.3;;;;;;;3.32;75.72656;952.4738;;;;
2021/03/30 03:51:49;;;;;;;3.5;1.3;;;;;;;3.31;75.66992;952.5625;;;;
2021/03/30 03:54:15;;;;;;;6.3;1.8;;;;;;;3.33;75.68359;952.5361;;;;
2021/03/30 03:56:41;;;;;;;3;1.4;;;;;;;3.41;74.96777;952.4763;;;;
2021/03/30 03:59:07;;;;;;;1.6;1.1;;;;;;;3.44;74.75879;952.5521;;;;
2021/03/30 04:02:36;;;;;;;1.3;0.8;;;;;;;3.39;74.77246;952.6092;;;;
2021/03/30 04:05:01;;;;;;;3;1.5;;;;;;;3.57;74.10938;952.6428;;;;
2021/03/30 04:07:26;;;;;;;1.5;0.7;;;;;;;3.76;73.00684;952.6004;;;;
2021/03/30 04:09:52;;;;;;;0.8;0.7;;;;;;;3.73;72.22656;952.564;;;;
2021/03/30 04:12:21;;;;;;;2.2;0.7;;;;;;;3.89;72.06152;952.608;;;;
2021/03/30 04:14:53;;;;;;;5;1.5;;;;;;;3.84;72.11035;952.6139;;;;
2021/03/30 04:17:24;;;;;;;1.3;0.7;;;;;;;3.84;72.16504;952.6508;;;;
2021/03/30 04:19:58;;;;;;;9.4;1.3;;;;;;;3.88;71.89355;952.6336;;;;
2021/03/30 04:22:25;;;;;;;1.7;1;;;;;;;3.59;73.63086;952.6329;;;;
2021/03/30 04:24:59;;;;;;;0.5;0.5;;;;;;;3.35;75.21484;952.6739;;;;
2021/03/30 04:27:31;;;;;;;6.8;1.7;;;;;;;3.26;75.68359;952.6672;;;;
2021/03/30 04:29:54;;;;;;;3;1.6;;;;;;;3.31;75.51367;952.7341;;;;
2021/03/30 04:32:25;;;;;;;3.9;1.8;;;;;;;3.34;75.1123;952.7294;;;;
2021/03/30 04:34:53;;;;;;;9.2;4.5;;;;;;;3.18;75.80176;952.8106;;;;
2021/03/30 04:37:19;;;;;;;7.6;3;;;;;;;3.04;76.07129;952.7759;;;;
2021/03/30 04:39:47;;;;;;;5.5;3.2;;;;;;;3.13;75.86133;952.759;;;;
2021/03/30 04:42:12;;;;;;;2.7;2;;;;;;;3.3;75.0498;952.7871;;;;
2021/03/30 04:44:41;;;;;;;2.3;1.7;;;;;;;3.27;74.84277;952.7834;;;;
2021/03/30 04:47:06;;;;;;;2.4;1.6;;;;;;;3.24;74.9707;952.813;;;;
2021/03/30 04:49:33;;;;;;;3.7;1.3;;;;;;;3.21;75.20215;952.7927;;;;
2021/03/30 04:51:58;;;;;;;1.2;1.1;;;;;;;3.03;76.03418;952.8442;;;;
2021/03/30 04:54:24;;;;;;;4.7;2.9;;;;;;;2.87;77.02539;952.7719;;;;
2021/03/30 04:56:50;;;;;;;3.3;2.1;;;;;;;2.97;76.77441;952.8395;;;;
2021/03/30 04:59:17;;;;;;;3.9;1.8;;;;;;;2.94;76.60156;952.8103;;;;
2021/03/30 05:01:42;;;;;;;2.2;1.5;;;;;;;2.89;76.92969;952.7656;;;;
2021/03/30 05:04:09;;;;;;;2;1.6;;;;;;;2.82;77.41992;952.7687;;;;
2021/03/30 05:06:34;;;;;;;3.9;2.5;;;;;;;2.91;77.03418;952.8395;;;;
2021/03/30 05:09:01;;;;;;;2.1;1.3;;;;;;;3.06;76.37695;952.858;;;;
2021/03/30 05:11:26;;;;;;;3.2;1.4;;;;;;;3.24;75.38672;952.7926;;;;
2021/03/30 05:13:55;;;;;;;1.7;1.1;;;;;;;3.23;75.23926;952.8533;;;;
2021/03/30 05:16:30;;;;;;;1.9;1.1;;;;;;;3.25;74.99512;952.7925;;;;
2021/03/30 05:18:58;;;;;;;3.2;1.6;;;;;;;3.34;74.5752;952.7634;;;;
2021/03/30 05:21:31;;;;;;;4.4;1.7;;;;;;;3.36;76.54297;952.7756;;;;
2021/03/30 05:24:00;;;;;;;5.6;1.9;;;;;;;3.48;74.96973;952.7533;;;;
2021/03/30 05:26:24;;;;;;;5.3;1.3;;;;;;;3.56;74.0957;952.6348;;;;
2021/03/30 05:28:50;;;;;;;2.2;1.2;;;;;;;3.52;74.33496;952.7402;;;;
2021/03/30 05:31:15;;;;;;;7.6;1.6;;;;;;;3.68;73.53223;952.7154;;;;
2021/03/30 05:33:43;;;;;;;4.4;2.3;;;;;;;3.84;73.06445;952.8106;;;;
2021/03/30 05:36:08;;;;;;;2.7;1.7;;;;;;;3.94;72.7793;952.8152;;;;
2021/03/30 05:38:35;;;;;;;2.7;1.6;;;;;;;4.05;72.41406;952.8175;;;;
2021/03/30 05:41:00;;;;;;;5.5;1.3;;;;;;;4.12;71.49219;952.7642;;;;
2021/03/30 05:43:26;;;;;;;2.2;1.2;;;;;;;4.03;71.98535;952.7458;;;;
2021/03/30 05:45:51;;;;;;;5.4;2.1;;;;;;;4.03;72.14258;952.8;;;;
2021/03/30 05:48:18;;;;;;;3.4;2;;;;;;;4.13;72.19336;952.8127;;;;
2021/03/30 05:50:43;;;;;;;1.5;1.2;;;;;;;4.56;70.86914;952.8691;;;;
2021/03/30 05:53:10;;;;;;;2.2;1.3;;;;;;;5.32;67.82617;952.8066;;;;
2021/03/30 05:55:35;;;;;;;2.4;1.1;;;;;;;5.89;65.39844;952.7874;;;;
2021/03/30 05:58:02;;;;;;;3.5;1.3;;;;;;;6.5;63.33105;952.8669;;;;
2021/03/30 06:00:27;;;;;;;1.4;0.9;;;;;;;6.94;61.17578;952.7862;;;;
2021/03/30 06:02:54;;;;;;;4.7;1.9;;;;;;;7.74;58.31738;952.7756;;;;
2021/03/30 06:05:19;;;;;;;2.4;1.1;;;;;;;8.41;56.18262;952.8354;;;;
2021/03/30 06:07:46;;;;;;;4.9;1.9;;;;;;;8.77;55.06836;952.777;;;;
2021/03/30 06:10:11;;;;;;;2.9;1.5;;;;;;;9.67;52.26758;952.7586;;;;
2021/03/30 06:12:38;;;;;;;6;1.7;;;;;;;10.12;50.46387;952.7662;;;;
2021/03/30 06:15:03;;;;;;;3.4;1.4;;;;;;;10.65;49.34863;952.8003;;;;
2021/03/30 06:17:32;;;;;;;2.3;1.2;;;;;;;11.24;47.40332;952.759;;;;
2021/03/30 06:19:57;;;;;;;12.3;1.2;;;;;;;11.82;45.95508;952.7148;;;;
2021/03/30 06:22:22;;;;;;;4.9;2;;;;;;;12.12;45.05762;952.7031;;;;
2021/03/30 06:24:51;;;;;;;1.6;1;;;;;;;12.85;43.11426;952.6644;;;;
2021/03/30 06:27:14;;;;;;;6;1.6;;;;;;;13.27;42.23633;952.7045;;;;
2021/03/30 06:29:39;;;;;;;1;0.8;;;;;;;12.85;42.60938;952.7413;;;;
2021/03/30 06:32:08;;;;;;;1.5;1;;;;;;;11.73;45.79688;952.7269;;;;
2021/03/30 06:34:33;;;;;;;1.3;0.8;;;;;;;11.19;46.20703;952.7777;;;;
2021/03/30 06:36:59;;;;;;;4.6;1.3;;;;;;;12.52;42.2666;952.7516;;;;
2021/03/30 06:39:27;;;;;;;2.5;1;;;;;;;13.95;39.40234;952.6861;;;;
2021/03/30 06:41:56;;;;;;;3;1.4;;;;;;;13.94;38.65332;952.6962;;;;
2021/03/30 06:44:26;;;;;;;4.7;1.1;;;;;;;13.23;39.77441;952.7164;;;;
2021/03/30 06:46:42;;;;;;;8.5;0.7;;;;;;;13.73;38.96875;952.655;;;;
2021/03/30 06:49:07;;;;;;;3.4;0.8;;;;;;;14.17;38.75488;952.6586;;;;
2021/03/30 06:51:35;;;;;;;1.6;1;;;;;;;15.4;37.50098;952.6414;;;;
2021/03/30 06:54:00;;;;;;;4;1.2;;;;;;;15.64;36.57422;952.6286;;;;
2021/03/30 06:56:26;;;;;;;2.2;0.6;;;;;;;15.94;35.24707;952.5806;;;;
2021/03/30 06:58:51;;;;;;;3.5;1.2;;;;;;;14.76;37.83789;952.5898;;;;
2021/03/30 07:01:17;;;;;;;1.2;0.7;;;;;;;14.64;37.73535;952.5967;;;;
2021/03/30 07:03:42;;;;;;;7.5;0.7;;;;;;;14.99;37.29395;952.5466;;;;
2021/03/30 07:06:09;;;;;;;1.4;0.7;;;;;;;15.18;35.83203;952.5586;;;;
2021/03/30 07:08:34;;;;;;;1.3;0.6;;;;;;;15.66;35.46777;952.515;;;;
2021/03/30 07:11:00;;;;;;;0.4;0.3;;;;;;;15.42;34.27051;952.565;;;;
2021/03/30 07:13:26;;;;;;;1.2;0.5;;;;;;;16.86;32.13477;952.515;;;;
2021/03/30 07:15:52;;;;;;;8.2;0.4;;;;;;;17.69;31.97559;952.4406;;;;
2021/03/30 07:18:19;;;;;;;0.7;0.5;;;;;;;17.58;29.49609;952.4861;;;;
2021/03/30 07:20:44;;;;;;;0.3;0.2;;;;;;;17.05;32.42676;952.4426;;;;
2021/03/30 07:23:09;;;;;;;3.8;0.5;;;;;;;17.19;32.25195;952.4002;;;;
2021/03/30 07:25:35;;;;;;;1.4;0.5;;;;;;;18;29.7793;952.4074;;;;
2021/03/30 07:28:00;;;;;;;0.5;0.2;;;;;;;17.42;30.56445;952.4071;;;;
2021/03/30 07:30:25;;;;;;;2.5;1;;;;;;;17.56;30.16797;952.3741;;;;
2021/03/30 07:32:50;;;;;;;0.6;0.3;;;;;;;18.28;29.99609;952.3694;;;;
2021/03/30 07:35:15;;;;;;;8.4;0.8;;;;;;;18.86;29.61719;952.3721;;;;
2021/03/30 07:37:42;;;;;;;0.2;0.2;;;;;;;19.31;27.73633;952.3497;;;;
2021/03/30 07:40:09;;;;;;;0.5;0.3;;;;;;;20.2;27.83887;952.2737;;;;
2021/03/30 07:42:34;;;;;;;0.3;0.3;;;;;;;20.56;25.50195;952.2766;;;;
2021/03/30 07:45:00;;;;;;;0.1;0.1;;;;;;;20.82;24.90918;952.2353;;;;
2021/03/30 07:47:26;;;;;;;1.8;0.9;;;;;;;20.05;26.59277;952.209;;;;
2021/03/30 07:49:52;;;;;;;6.5;0.3;;;;;;;21.21;27.36523;952.1953;;;;
2021/03/30 07:52:17;;;;;;;0.7;0.3;;;;;;;21.97;25.4668;952.1788;;;;
2021/03/30 07:54:43;;;;;;;2.2;0.9;;;;;;;21.9;24.33691;952.2154;;;;
2021/03/30 07:57:08;;;;;;;1.1;0.6;;;;;;;22.04;24.54492;952.2045;;;;
2021/03/30 07:59:33;;;;;;;0.5;0.4;;;;;;;22.04;23.54785;952.2115;;;;
2021/03/30 08:02:00;;;;;;;4.5;0.7;;;;;;;23.27;22.48438;952.1522;;;;
2021/03/30 08:04:26;;;;;;;0.6;0.5;;;;;;;23.99;22.02637;952.1439;;;;
2021/03/30 08:06:51;;;;;;;0.2;0.2;;;;;;;24.44;21.625;952.1234;;;;
2021/03/30 08:09:17;;;;;;;1;0.3;;;;;;;24.23;21.37891;952.1411;;;;
2021/03/30 08:11:43;;;;;;;1.4;0.7;;;;;;;24.19;22.87305;952.1165;;;;
2021/03/30 08:14:07;;;;;;;10.3;0.5;;;;;;;25.99;21.06152;952.1079;;;;
2021/03/30 08:16:35;;;;;;;7.9;1.2;;;;;;;25.12;21.03223;952.0873;;;;
2021/03/30 08:19:01;;;;;;;1.4;0.6;;;;;;;23.79;21.86328;952.0948;;;;
2021/03/30 08:21:26;;;;;;;1.9;0.6;;;;;;;22.95;23.53711;952.0995;;;;
2021/03/30 08:23:51;;;;;;;0.4;0.2;;;;;;;25.33;22.48242;952.0773;;;;
2021/03/30 08:26:17;;;;;;;0.1;0.1;;;;;;;26.43;20.40723;952.0381;;;;
2021/03/30 08:28:43;;;;;;;3.1;0.7;;;;;;;26.68;19.36426;952.0555;;;;
2021/03/30 08:31:08;;;;;;;0.7;0.4;;;;;;;27.2;19.49316;952.032;;;;
2021/03/30 08:33:33;;;;;;;1.1;0.7;;;;;;;27.17;19.40918;951.9736;;;;
2021/03/30 08:35:59;;;;;;;0.7;0.5;;;;;;;26.35;19.5752;951.9814;;;;
2021/03/30 08:38:24;;;;;;;1.3;0.7;;;;;;;27.63;18.19434;951.9397;;;;
2021/03/30 08:40:49;;;;;;;1.5;0.4;;;;;;;26.27;20.90918;951.9788;;;;
2021/03/30 08:43:16;;;;;;;1.2;0.4;;;;;;;26.81;18.62305;951.8943;;;;
2021/03/30 08:45:40;;;;;;;0.1;0.1;;;;;;;27.45;18.36523;951.9255;;;;
2021/03/30 08:48:05;;;;;;;1;0.4;;;;;;;26.92;18.43848;951.9384;;;;
2021/03/30 08:50:33;;;;;;;0.2;0.2;;;;;;;28.54;16.9707;951.8791;;;;
2021/03/30 08:52:56;;;;;;;0.2;0.2;;;;;;;29;16.55957;951.8722;;;;
2021/03/30 08:55:21;;;;;;;1;0.5;;;;;;;27.3;17.52832;951.9008;;;;
2021/03/30 08:57:46;;;;;;;0.8;0.4;;;;;;;26.84;19.06348;951.8692;;;;
2021/03/30 09:00:11;;;;;;;0.8;0.6;;;;;;;26.18;19.68555;951.8391;;;;
2021/03/30 09:02:37;;;;;;;0.7;0.3;;;;;;;24.92;19.52441;951.8699;;;;
2021/03/30 09:05:02;;;;;;;5.9;0.8;;;;;;;26.42;19.61328;951.8758;;;;
2021/03/30 09:07:28;;;;;;;1;0.4;;;;;;;26.96;19.13965;951.812;;;;
2021/03/30 09:09:54;;;;;;;8.1;1.2;;;;;;;28.5;17.61133;951.7939;;;;
2021/03/30 09:12:19;;;;;;;1.8;0.5;;;;;;;27.33;17.80273;951.7498;;;;
2021/03/30 09:14:44;;;;;;;0.9;0.2;;;;;;;26.55;18.39941;951.7766;;;;
2021/03/30 09:17:09;;;;;;;0.7;0.4;;;;;;;28.02;17.55664;951.6824;;;;
2021/03/30 09:19:41;;;;;;;0.3;0.3;;;;;;;28.58;18.83984;951.6989;;;;
2021/03/30 09:22:03;;;;;;;2.7;0.3;;;;;;;26.06;18.9707;951.6809;;;;
2021/03/30 09:24:42;;;;;;;0.4;0.4;;;;;;;25.83;19.49316;951.6414;;;;
2021/03/30 09:26:54;;;;;;;0.3;0.3;;;;;;;26.86;19.27734;951.6404;;;;
2021/03/30 09:29:19;;;;;;;1;0.3;;;;;;;27.9;18.52637;951.6197;;;;
2021/03/30 09:31:44;;;;;;;1.2;0.9;;;;;;;29.01;18.04785;951.6078;;;;
2021/03/30 09:34:09;;;;;;;0.9;0.5;;;;;;;29.21;15.8291;951.5938;;;;
2021/03/30 09:36:34;;;;;;;1.3;0.4;;;;;;;30.34;17.01465;951.5405;;;;
2021/03/30 09:38:59;;;;;;;0.5;0.3;;;;;;;29.76;16.26563;951.4999;;;;
2021/03/30 09:41:26;;;;;;;1.1;0.7;;;;;;;28;17.73438;951.5076;;;;
2021/03/30 09:43:51;;;;;;;1.8;1;;;;;;;29.06;17.0498;951.5052;;;;
2021/03/30 09:46:17;;;;;;;0.2;0.2;;;;;;;28.22;17.42285;951.4971;;;;
2021/03/30 09:48:42;;;;;;;2.1;0.4;;;;;;;28.85;16.75586;951.4026;;;;
2021/03/30 09:51:08;;;;;;;3.4;0.4;;;;;;;29.51;16.33984;951.3997;;;;
2021/03/30 09:53:33;;;;;;;1.6;0.9;;;;;;;29.14;17.96973;951.3655;;;;
2021/03/30 09:56:00;;;;;;;0.8;0.6;;;;;;;29.84;16.3877;951.3701;;;;
2021/03/30 09:58:25;;;;;;;2.3;0.4;;;;;;;30.65;14.44531;951.3835;;;;
2021/03/30 10:00:52;;;;;;;0.6;0.4;;;;;;;30.6;14.44434;951.3409;;;;
2021/03/30 10:03:17;;;;;;;1.3;0.4;;;;;;;29.94;15.52051;951.2859;;;;
2021/03/30 10:05:43;;;;;;;5.5;0.6;;;;;;;30.85;15.07324;951.3396;;;;
2021/03/30 10:08:08;;;;;;;0.3;0.2;;;;;;;31.05;13.95605;951.3094;;;;
2021/03/30 10:10:33;;;;;;;0.2;0.2;;;;;;;30.7;14.70996;951.2675;;;;
2021/03/30 10:13:00;;;;;;;1.5;0.4;;;;;;;31.01;15.37793;951.2775;;;;
2021/03/30 10:15:43;;;;;;;0.6;0.3;;;;;;;31.07;15.34375;951.2927;;;;
2021/03/30 10:18:07;;;;;;;0.4;0.3;;;;;;;31.55;13.5166;951.2971;;;;
2021/03/30 10:20:32;;;;;;;0.9;0.4;;;;;;;30.93;14.0957;951.2361;;;;
2021/03/30 10:22:57;;;;;;;0.9;0.5;;;;;;;31.15;15.0957;951.2782;;;;
2021/03/30 10:25:23;;;;;;;1.8;0.3;;;;;;;32.08;15.67773;951.2313;;;;
2021/03/30 10:27:48;;;;;;;0.9;0.4;;;;;;;32.08;14.16797;951.2184;;;;
2021/03/30 10:30:14;;;;;;;3.6;0.7;;;;;;;30.18;15.23047;951.191;;;;
2021/03/30 10:32:39;;;;;;;0.1;0.1;;;;;;;30.22;15.9834;951.1375;;;;
2021/03/30 10:35:04;;;;;;;1.2;0.2;;;;;;;29.69;15.90527;951.0948;;;;
2021/03/30 10:37:29;;;;;;;0.3;0.1;;;;;;;29.41;15.65723;951.0589;;;;
2021/03/30 10:39:55;;;;;;;0.2;0.1;;;;;;;29.35;16.22656;951.0591;;;;
2021/03/30 10:42:20;;;;;;;0.5;0.4;;;;;;;29.34;16.7627;950.9895;;;;
2021/03/30 10:44:45;;;;;;;0.2;0.2;;;;;;;28.69;17.02344;950.9767;;;;
2021/03/30 10:47:11;;;;;;;1;0.2;;;;;;;28.1;18.35645;950.9218;;;;
2021/03/30 10:49:36;;;;;;;0.6;0.2;;;;;;;28.63;18.16406;950.9371;;;;
2021/03/30 10:52:01;;;;;;;0.7;0.2;;;;;;;28.69;18.62988;950.9503;;;;
2021/03/30 10:54:26;;;;;;;0.2;0.2;;;;;;;29.07;17.63379;950.8918;;;;
2021/03/30 10:56:52;;;;;;;0.3;0.2;;;;;;;29.23;17.4375;950.8506;;;;
2021/03/30 10:59:17;;;;;;;0.6;0.2;;;;;;;28.04;18.0332;950.7971;;;;
2021/03/30 11:01:42;;;;;;;0.8;0.3;;;;;;;27.57;18.03809;950.7737;;;;
2021/03/30 11:04:07;;;;;;;0.1;0.1;;;;;;;28.17;16.93359;950.8174;;;;
2021/03/30 11:06:32;;;;;;;3.8;0.3;;;;;;;29;16.44043;950.7978;;;;
2021/03/30 11:08:58;;;;;;;0.9;0.6;;;;;;;29.55;16.56836;950.7519;;;;
2021/03/30 11:11:24;;;;;;;1.2;0.4;;;;;;;29;16.92871;950.7338;;;;
2021/03/30 11:13:50;;;;;;;0.2;0.2;;;;;;;28.48;16.79004;950.762;;;;
2021/03/30 11:16:16;;;;;;;1.2;0.3;;;;;;;28.17;17.11133;950.6487;;;;
2021/03/30 11:18:41;;;;;;;0.3;0.3;;;;;;;28.21;16.99414;950.6637;;;;
2021/03/30 11:21:12;;;;;;;0.8;0.3;;;;;;;28.23;18.18262;950.6261;;;;
2021/03/30 11:23:41;;;;;;;1;0.3;;;;;;;28.29;17.1875;950.6724;;;;
2021/03/30 11:26:04;;;;;;;0.7;0.4;;;;;;;29.07;18.0625;950.5999;;;;
2021/03/30 11:28:35;;;;;;;1.1;0.3;;;;;;;29.01;18.33398;950.5854;;;;
2021/03/30 11:31:00;;;;;;;5.4;0.3;;;;;;;28.17;18.91797;950.5005;;;;
2021/03/30 11:33:22;;;;;;;0.3;0.3;;;;;;;26.94;20.00391;950.6003;;;;
2021/03/30 11:35:50;;;;;;;0.1;0.1;;;;;;;27.55;19.17676;950.4656;;;;
2021/03/30 11:38:12;;;;;;;0.3;0.3;;;;;;;26.77;20.89648;950.5094;;;;
2021/03/30 11:40:38;;;;;;;0.8;0.3;;;;;;;26.6;20.28516;950.4476;;;;
2021/03/30 11:43:03;;;;;;;0.7;0.3;;;;;;;25.54;23.74512;950.4528;;;;
2021/03/30 11:45:30;;;;;;;0.8;0.6;;;;;;;26.26;21.62988;950.4305;;;;
2021/03/30 11:47:55;;;;;;;0.2;0.2;;;;;;;27.33;19.60547;950.3876;;;;
2021/03/30 11:50:22;;;;;;;0.2;0.2;;;;;;;28.26;19.40918;950.35;;;;
2021/03/30 11:52:48;;;;;;;3.8;0.7;;;;;;;29.29;18.78613;950.3574;;;;
2021/03/30 11:55:13;;;;;;;0.2;0.2;;;;;;;28.82;19.48047;950.262;;;;
2021/03/30 11:57:38;;;;;;;1.3;0.3;;;;;;;27.99;19.82422;950.2535;;;;
2021/03/30 12:00:06;;;;;;;0.3;0.1;;;;;;;28.56;19.35059;950.22;;;;
2021/03/30 12:02:31;;;;;;;0.1;0.1;;;;;;;29.02;18.53711;950.2023;;;;
2021/03/30 12:04:57;;;;;;;0.3;0.3;;;;;;;28.94;18.30762;950.1367;;;;
2021/03/30 12:07:22;;;;;;;0.6;0.3;;;;;;;29.71;17.94434;950.1523;;;;
2021/03/30 12:09:48;;;;;;;0.5;0.2;;;;;;;30.47;16.16016;950.0876;;;;
2021/03/30 12:12:13;;;;;;;3.3;0.4;;;;;;;30.79;16.35059;950.0933;;;;
2021/03/30 12:14:39;;;;;;;0.3;0.2;;;;;;;30.19;17.53418;950.0425;;;;
2021/03/30 12:17:04;;;;;;;0.3;0.2;;;;;;;29.61;17.4043;950.0645;;;;
2021/03/30 12:19:29;;;;;;;0.8;0.5;;;;;;;29.74;18.7334;950.0028;;;;
2021/03/30 12:21:54;;;;;;;1.4;0.5;;;;;;;29.41;17.84961;949.9573;;;;
2021/03/30 12:24:19;;;;;;;0.3;0.3;;;;;;;29.27;18.02246;949.8783;;;;
2021/03/30 12:26:47;;;;;;;0.1;0.1;;;;;;;28.71;18.78613;949.8917;;;;
2021/03/30 12:29:12;;;;;;;1.1;0.3;;;;;;;28.64;18.89063;949.8234;;;;
2021/03/30 12:31:39;;;;;;;0;0;;;;;;;28.11;20.25781;949.8125;;;;
2021/03/30 12:34:04;;;;;;;1.9;0.5;;;;;;;28.09;18.6416;949.7893;;;;
2021/03/30 12:36:29;;;;;;;0.7;0.3;;;;;;;28.58;19.31543;949.7068;;;;
2021/03/30 12:38:54;;;;;;;0.4;0.2;;;;;;;27.73;20.11035;949.7162;;;;
2021/03/30 12:41:21;;;;;;;0.3;0.2;;;;;;;26.65;19.93164;949.687;;;;
2021/03/30 12:43:46;;;;;;;0.1;0.1;;;;;;;25.85;22.78027;949.6976;;;;
2021/03/30 12:46:12;;;;;;;0.8;0.4;;;;;;;25.13;23.65234;949.712;;;;
2021/03/30 12:48:37;;;;;;;0.4;0.2;;;;;;;25.1;23.41504;949.6567;;;;
2021/03/30 12:51:02;;;;;;;0.4;0.3;;;;;;;25.08;21.82129;949.6094;;;;
2021/03/30 12:53:27;;;;;;;0.3;0.2;;;;;;;25.05;22.63379;949.5988;;;;
2021/03/30 12:55:55;;;;;;;1.1;0.5;;;;;;;24.94;22.66406;949.5212;;;;
2021/03/30 12:58:21;;;;;;;1;0.4;;;;;;;24.86;23.32031;949.4916;;;;
2021/03/30 13:00:47;;;;;;;0.5;0.2;;;;;;;24.84;22.11621;949.4939;;;;
2021/03/30 13:03:12;;;;;;;0.9;0.6;;;;;;;24.72;22.84082;949.457;;;;
2021/03/30 13:05:37;;;;;;;4.5;0.4;;;;;;;24.7;22.52148;949.4625;;;;
2021/03/30 13:08:02;;;;;;;9;0.5;;;;;;;24.67;23.2627;949.3787;;;;
2021/03/30 13:10:29;;;;;;;0.6;0.3;;;;;;;24.42;22.24805;949.3872;;;;
2021/03/30 13:12:54;;;;;;;0.2;0.1;;;;;;;24.35;24.05957;949.3287;;;;
2021/03/30 13:15:28;;;;;;;0.3;0.3;;;;;;;24.17;24.93262;949.3474;;;;
2021/03/30 13:17:54;;;;;;;1.4;0.4;;;;;;;24.13;24.07129;949.2737;;;;
2021/03/30 13:20:19;;;;;;;0.4;0.2;;;;;;;24.15;24.10742;949.3156;;;;
2021/03/30 13:22:46;;;;;;;0.8;0.2;;;;;;;24.16;24.04883;949.295;;;;
2021/03/30 13:25:12;;;;;;;0.6;0.5;;;;;;;24.3;23.43164;949.2277;;;;
2021/03/30 13:27:37;;;;;;;1;0.7;;;;;;;24.21;23.94629;949.182;;;;
2021/03/30 13:30:02;;;;;;;0.5;0.4;;;;;;;24.41;23.28516;949.1465;;;;
2021/03/30 13:32:28;;;;;;;0.3;0.2;;;;;;;24.19;23.89746;949.0906;;;;
2021/03/30 13:34:53;;;;;;;0.2;0.2;;;;;;;24.08;23.78613;949.0959;;;;
2021/03/30 13:37:19;;;;;;;0.5;0.2;;;;;;;23.9;23.91797;949.1301;;;;
2021/03/30 13:39:44;;;;;;;2.1;0.3;;;;;;;24.07;24.24414;949.0188;;;;
2021/03/30 13:42:12;;;;;;;0.4;0.3;;;;;;;24.02;24.1709;949.0767;;;;
2021/03/30 13:44:37;;;;;;;0.4;0.2;;;;;;;23.75;24.70996;948.9888;;;;
2021/03/30 13:47:03;;;;;;;0.4;0.2;;;;;;;23.83;23.84277;948.9749;;;;
2021/03/30 13:49:28;;;;;;;0.6;0.4;;;;;;;23.94;25.04883;948.947;;;;
2021/03/30 13:51:53;;;;;;;1.1;0.5;;;;;;;23.95;25.06152;948.9662;;;;
2021/03/30 13:54:19;;;;;;;0.7;0.4;;;;;;;24.1;23.69238;948.8992;;;;
2021/03/30 13:56:44;;;;;;;1.6;0.7;;;;;;;24.28;23.5957;948.8989;;;;
2021/03/30 13:59:10;;;;;;;0.7;0.2;;;;;;;24.1;23.48047;948.8747;;;;
2021/03/30 14:01:37;;;;;;;0.6;0.3;;;;;;;24.13;24.30664;948.8136;;;;
2021/03/30 14:04:02;;;;;;;0.3;0.3;;;;;;;24.21;23.39258;948.7726;;;;
2021/03/30 14:06:30;;;;;;;2;0.3;;;;;;;24.22;23.51074;948.7714;;;;
2021/03/30 14:08:55;;;;;;;1;0.4;;;;;;;24.32;23.2793;948.7475;;;;
2021/03/30 14:11:23;;;;;;;0.3;0.2;;;;;;;24.27;22.93555;948.7575;;;;
2021/03/30 14:13:48;;;;;;;0.3;0.2;;;;;;;24.27;24.18457;948.7819;;;;
2021/03/30 14:16:14;;;;;;;0.8;0.4;;;;;;;24.39;23.41309;948.6633;;;;
2021/03/30 14:18:43;;;;;;;0.9;0.3;;;;;;;24.47;23.51172;948.6696;;;;
2021/03/30 14:21:06;;;;;;;0.5;0.2;;;;;;;24.52;22.98438;948.6592;;;;
2021/03/30 14:23:25;;;;;;;4.4;0.7;;;;;;;24.49;23.40723;948.6225;;;;
2021/03/30 14:25:50;;;;;;;4.2;0.5;;;;;;;24.58;23.15234;948.6761;;;;